Aviation Digital Data Service (ADDS)

Output produced by METARs form (0457 UTC 18 January 2022)
found at http://www.aviationweather.gov/metar/data/
 
LETO 180430Z 07004KT CAVOK M04/M05 Q1030 NOSIG
TAF LETO 172300Z 1800/1824 VRB04KT CAVOK TX11/1815Z TNM04/1807Z
       
LEZG 180430Z 00000KT CAVOK M02/M03 Q1031
TAF LEZG 172300Z 1800/1824 27005KT CAVOK TX11/1814Z TNM02/1806Z 
     BECMG 1816/1818 VRB03KT
       
LERT 180430Z 04007KT CAVOK 07/05 Q1027 NOSIG
TAF LERT 180200Z 1803/1903 08007KT CAVOK TX17/1814Z TN05/1808Z
       
LELC 180430Z AUTO 25003KT 6000 NCD 02/02 Q1031
TAF LELC 172300Z 1800/1824 32004KT CAVOK TX14/1814Z TN05/1807Z
       
LEAB 180430Z 28003KT CAVOK M04/M06 Q1030 NOSIG
TAF LEAB 172300Z 1800/1824 VRB05KT CAVOK TX14/1815Z TNM07/1806Z 
     PROB30 
     TEMPO 1800/1808 4000 BR BKN009
       
TAF LEBZ 180200Z 1803/1903 VRB02KT CAVOK TX15/1815Z TN00/1808Z
       
LEMO 180430Z 12002KT CAVOK 00/M01 Q1028 NOSIG
TAF LEMO 180200Z 1803/1903 09003KT CAVOK TX17/1815Z TN03/1808Z
       
LESA 180430Z AUTO 00000KT 8000 NCD M05/M06 Q1030
TAF LESA 180200Z 1803/1903 VRB04KT CAVOK TX11/1815Z TNM07/1807Z 
     PROB30 
     TEMPO 1803/1808 3500 BR BCFG BKN008
       
GCLP 180430Z 13008KT 100V160 9999 SCT015 BKN032 16/14 Q1021 NOSIG
TAF GCLP 180200Z 1803/1903 16008KT 9999 FEW025 TX21/1814Z TN11/1805Z 
     PROB30 
     TEMPO 1803/1805 3000 RA
       
LIED 180355Z 02005KT 9999 SCT040 07/05 Q1027 RMK BKN VIS MIN 9999 WIND THR35 01004KT WIND THR17 03004KT BLU
TAF LIED 180200Z 1803/1812 02004KT 9999 SCT040 
     PROB40 
     TEMPO 1804/1806 1200 MIFG
       
LIPR 180450Z AUTO 24007KT 9999 NCD 02/M02 Q1029
TAF LIPR 172300Z 1800/1824 VRB04KT 6000 FEW030 
     TEMPO 1800/1808 2000 BR BKN010 
     TEMPO 1821/1824 1500 BR BKN006